createdAt,value
2018-09-11T00:00:20.400Z,55.95
2018-09-11T00:02:49.166Z,55.95
2018-09-11T00:05:19.723Z,56.30
2018-09-11T00:07:48.513Z,55.43
2018-09-11T00:10:17.382Z,55.78
2018-09-11T00:12:46.778Z,55.27
2018-09-11T00:15:15.698Z,55.20
2018-09-11T00:17:44.577Z,55.14
2018-09-11T00:20:13.368Z,56.26
2018-09-11T00:22:42.232Z,55.65
2018-09-11T00:25:11.118Z,55.49
2018-09-11T00:27:39.992Z,55.63
2018-09-11T00:30:08.836Z,56.34
2018-09-11T00:32:37.931Z,57.70
2018-09-11T00:35:06.734Z,58.21
2018-09-11T00:37:35.552Z,59.19
2018-09-11T00:40:04.498Z,58.87
2018-09-11T00:42:33.368Z,60.01
2018-09-11T00:45:02.252Z,60.37
2018-09-11T00:47:31.016Z,60.76
2018-09-11T00:49:59.874Z,59.05
2018-09-11T00:52:28.647Z,57.78
2018-09-11T00:54:57.561Z,60.20
2018-09-11T00:57:26.534Z,60.29
2018-09-11T00:59:55.285Z,59.07
2018-09-11T01:02:24.174Z,59.98
2018-09-11T01:04:53.019Z,58.39
2018-09-11T01:07:21.950Z,58.84
2018-09-11T01:09:50.705Z,59.88
2018-09-11T01:12:19.496Z,60.75
2018-09-11T01:14:48.279Z,60.70
2018-09-11T01:17:17.046Z,60.36
2018-09-11T01:19:45.917Z,59.69
2018-09-11T01:22:14.731Z,59.38
2018-09-11T01:24:43.593Z,59.31
2018-09-11T01:27:12.366Z,58.48
2018-09-11T01:29:41.178Z,58.87
2018-09-11T01:32:10.039Z,58.03
2018-09-11T01:34:38.810Z,58.68
2018-09-11T01:37:08.141Z,58.29
2018-09-11T01:39:36.946Z,58.31
2018-09-11T01:42:05.828Z,57.88
2018-09-11T01:44:34.615Z,57.94
2018-09-11T01:47:03.459Z,58.64
2018-09-11T01:49:32.463Z,57.73
2018-09-11T01:52:01.251Z,58.19
2018-09-11T01:54:30.087Z,58.49
2018-09-11T01:56:58.849Z,58.30
2018-09-11T01:59:27.657Z,58.70
2018-09-11T02:01:56.415Z,59.12
2018-09-11T02:04:25.205Z,58.49
2018-09-11T02:06:54.005Z,58.48
2018-09-11T02:09:22.752Z,58.85
2018-09-11T02:11:51.515Z,58.99
2018-09-11T02:14:20.335Z,59.22
2018-09-11T02:16:49.173Z,60.16
2018-09-11T02:19:17.974Z,59.52
2018-09-11T02:21:46.807Z,59.18
2018-09-11T02:24:15.589Z,59.56
2018-09-11T02:26:44.401Z,58.57
2018-09-11T02:29:13.569Z,58.41
2018-09-11T02:31:42.363Z,59.74
2018-09-11T02:34:11.158Z,59.24
2018-09-11T02:36:39.941Z,59.82
2018-09-11T02:39:10.643Z,60.00
2018-09-11T02:41:39.460Z,61.30
2018-09-11T02:44:09.279Z,61.44
2018-09-11T02:46:38.085Z,60.56
2018-09-11T02:49:07.295Z,60.85
2018-09-11T02:51:36.131Z,61.13
2018-09-11T02:54:05.010Z,61.56
2018-09-11T02:56:33.807Z,61.44
2018-09-11T02:59:02.587Z,61.87
2018-09-11T03:01:31.404Z,61.47
2018-09-11T03:04:00.209Z,60.89
2018-09-11T03:06:29.048Z,60.29
2018-09-11T03:08:57.882Z,59.85
2018-09-11T03:11:26.791Z,60.34
2018-09-11T03:13:55.645Z,59.71
2018-09-11T03:16:24.411Z,59.25
2018-09-11T03:18:53.266Z,60.47
2018-09-11T03:21:22.204Z,60.39
2018-09-11T03:23:51.019Z,60.86
2018-09-11T03:26:19.811Z,60.89
2018-09-11T03:28:48.680Z,61.47
2018-09-11T03:31:17.879Z,60.43
2018-09-11T03:33:46.821Z,59.88
2018-09-11T03:36:15.676Z,61.16
2018-09-11T03:38:44.643Z,60.48
2018-09-11T03:41:13.446Z,59.67
2018-09-11T03:43:42.296Z,60.88
2018-09-11T03:46:12.071Z,61.23
2018-09-11T03:48:40.921Z,60.28
2018-09-11T03:51:09.718Z,60.43
2018-09-11T03:53:38.556Z,60.65
2018-09-11T03:56:07.407Z,59.81
2018-09-11T03:58:36.244Z,61.59
2018-09-11T04:01:05.452Z,61.27
2018-09-11T04:03:34.282Z,59.93
2018-09-11T04:06:03.041Z,60.75
2018-09-11T04:08:31.856Z,60.60
2018-09-11T04:11:00.641Z,59.71
2018-09-11T04:13:29.480Z,60.47
2018-09-11T04:15:58.289Z,60.49
2018-09-11T04:18:27.192Z,60.51
2018-09-11T04:20:56.005Z,58.48
2018-09-11T04:23:24.758Z,58.72
2018-09-11T04:25:53.575Z,57.59
2018-09-11T04:28:22.401Z,56.44
2018-09-11T04:30:51.287Z,56.18
2018-09-11T04:33:20.084Z,57.31
2018-09-11T04:35:48.834Z,56.23
2018-09-11T04:38:17.650Z,54.86
2018-09-11T04:40:46.451Z,55.14
2018-09-11T04:43:15.268Z,54.87
2018-09-11T04:45:44.204Z,55.01
2018-09-11T04:48:13.210Z,54.10
2018-09-11T04:50:42.023Z,53.71
2018-09-11T04:53:10.877Z,54.28
2018-09-11T04:55:40.029Z,53.66
2018-09-11T04:58:09.303Z,54.35
2018-09-11T05:00:38.324Z,53.13
2018-09-11T05:03:07.135Z,53.63
2018-09-11T05:05:35.975Z,53.35
2018-09-11T05:08:04.802Z,52.58
2018-09-11T05:10:33.591Z,53.22
2018-09-11T05:13:02.456Z,53.68
2018-09-11T05:15:31.372Z,53.31
2018-09-11T05:18:00.306Z,53.37
2018-09-11T05:20:29.558Z,53.35
2018-09-11T05:22:58.330Z,53.34
2018-09-11T05:25:27.179Z,53.26
2018-09-11T05:27:56.098Z,52.50
2018-09-11T05:30:24.942Z,52.67
2018-09-11T05:32:53.856Z,52.69
2018-09-11T05:35:22.747Z,52.66
2018-09-11T05:37:51.639Z,52.67
2018-09-11T05:40:20.500Z,52.22
2018-09-11T05:42:49.384Z,53.27
2018-09-11T05:45:18.176Z,51.81
2018-09-11T05:47:46.967Z,51.95
2018-09-11T05:50:15.845Z,50.83
2018-09-11T05:52:44.651Z,50.53
2018-09-11T05:55:13.437Z,50.64
2018-09-11T05:57:42.371Z,50.87
2018-09-11T06:00:11.299Z,50.64
2018-09-11T06:02:40.238Z,50.05
2018-09-11T06:05:09.234Z,51.01
2018-09-11T06:07:38.079Z,51.19
2018-09-11T06:10:06.986Z,50.40
2018-09-11T06:12:35.809Z,51.23
2018-09-11T06:15:05.030Z,50.60
2018-09-11T06:17:33.916Z,50.43
2018-09-11T06:20:02.754Z,50.37
2018-09-11T06:22:31.625Z,51.33
2018-09-11T06:25:00.486Z,50.54
2018-09-11T06:27:29.253Z,51.62
2018-09-11T06:29:58.202Z,51.11
2018-09-11T06:32:26.986Z,51.36
2018-09-11T06:34:55.797Z,50.95
2018-09-11T06:37:24.638Z,50.50
2018-09-11T06:39:53.564Z,51.06
2018-09-11T06:42:22.344Z,51.25
2018-09-11T06:44:51.201Z,51.58
2018-09-11T06:47:20.195Z,51.58
2018-09-11T06:49:49.310Z,50.28
2018-09-11T06:52:18.099Z,51.23
2018-09-11T06:54:46.958Z,51.09
2018-09-11T06:57:15.960Z,50.93
2018-09-11T06:59:44.742Z,50.55
2018-09-11T07:02:13.581Z,49.13
2018-09-11T07:04:42.428Z,48.64
2018-09-11T07:07:11.190Z,48.25
2018-09-11T07:09:40.006Z,49.21
2018-09-11T07:12:08.741Z,47.50
2018-09-11T07:14:37.565Z,48.52
2018-09-11T07:17:06.591Z,48.40
2018-09-11T07:19:35.574Z,47.18
2018-09-11T07:22:04.607Z,47.90
2018-09-11T07:24:33.626Z,48.42
2018-09-11T07:27:02.449Z,48.25
2018-09-11T07:29:31.271Z,47.98
2018-09-11T07:32:00.137Z,46.13
2018-09-11T07:34:29.039Z,45.49
2018-09-11T07:36:57.863Z,45.93
2018-09-11T07:39:26.622Z,46.40
2018-09-11T07:41:55.561Z,46.54
2018-09-11T07:44:24.446Z,44.95
2018-09-11T07:46:53.661Z,45.31
2018-09-11T07:49:22.547Z,44.83
2018-09-11T07:51:51.389Z,43.73
2018-09-11T07:54:20.270Z,44.44
2018-09-11T07:56:49.128Z,43.77
2018-09-11T07:59:17.968Z,44.14
2018-09-11T08:01:46.764Z,43.92
2018-09-11T08:04:15.685Z,43.19
2018-09-11T08:06:44.517Z,42.22
2018-09-11T08:09:14.039Z,41.91
2018-09-11T08:11:42.797Z,43.36
2018-09-11T08:14:11.585Z,43.24
2018-09-11T08:16:40.286Z,43.77
2018-09-11T08:19:09.399Z,43.05
2018-09-11T08:21:38.214Z,43.02
2018-09-11T08:24:07.488Z,43.20
2018-09-11T08:26:36.375Z,42.15
2018-09-11T08:29:05.321Z,42.48
2018-09-11T08:31:34.165Z,43.31
2018-09-11T08:34:02.998Z,43.01
2018-09-11T08:36:31.735Z,42.07
2018-09-11T08:39:00.605Z,42.66
2018-09-11T08:41:29.419Z,42.29
2018-09-11T08:43:58.184Z,42.32
2018-09-11T08:46:26.980Z,41.88
2018-09-11T08:48:55.841Z,41.38
2018-09-11T08:51:24.760Z,41.59
2018-09-11T08:53:53.501Z,41.10
2018-09-11T08:56:22.348Z,40.56
2018-09-11T08:58:51.225Z,40.27
2018-09-11T09:01:20.028Z,39.99
2018-09-11T09:03:48.748Z,39.70
2018-09-11T09:06:17.475Z,39.58
2018-09-11T09:08:46.259Z,39.97
2018-09-11T09:11:15.082Z,40.80
2018-09-11T09:13:43.887Z,40.47
2018-09-11T09:16:12.631Z,40.60
2018-09-11T09:18:41.389Z,40.22
2018-09-11T09:21:10.337Z,41.29
2018-09-11T09:23:39.053Z,41.07
2018-09-11T09:26:07.810Z,41.14
2018-09-11T09:28:36.587Z,41.56
2018-09-11T09:31:05.755Z,40.38
2018-09-11T09:33:34.644Z,40.57
2018-09-11T09:36:03.402Z,39.71
2018-09-11T09:38:32.134Z,40.19
2018-09-11T09:41:00.939Z,39.74
2018-09-11T09:43:29.731Z,39.21
2018-09-11T09:45:58.538Z,39.42
2018-09-11T09:48:27.274Z,39.60
2018-09-11T09:50:56.278Z,39.51
2018-09-11T09:53:25.118Z,39.49
2018-09-11T09:55:53.917Z,39.10
2018-09-11T09:58:22.706Z,38.05
2018-09-11T10:01:01.639Z,38.00
2018-09-11T10:03:30.883Z,38.68
2018-09-11T10:05:59.623Z,38.73
2018-09-11T10:08:28.393Z,39.23
2018-09-11T10:10:57.180Z,38.79
2018-09-11T10:13:25.947Z,39.60
2018-09-11T10:15:54.842Z,39.79
2018-09-11T10:18:23.659Z,39.90
2018-09-11T10:20:52.407Z,39.92
2018-09-11T10:23:21.226Z,40.77
2018-09-11T10:25:49.999Z,40.22
2018-09-11T10:28:18.813Z,40.57
2018-09-11T10:30:47.790Z,40.82
2018-09-11T10:33:16.511Z,39.87
2018-09-11T10:35:45.261Z,39.43
2018-09-11T10:38:14.028Z,39.78
2018-09-11T10:40:42.810Z,40.92
2018-09-11T10:43:11.612Z,40.16
2018-09-11T10:45:40.359Z,40.87
2018-09-11T10:48:09.774Z,40.70
2018-09-11T10:50:38.531Z,40.73
2018-09-11T10:53:07.450Z,39.08
2018-09-11T10:55:36.283Z,39.73
2018-09-11T10:58:05.277Z,40.34
2018-09-11T11:00:34.188Z,40.78
2018-09-11T11:03:03.573Z,41.72
2018-09-11T11:05:32.644Z,41.47
2018-09-11T11:08:01.714Z,41.41
2018-09-11T11:10:30.892Z,40.75
2018-09-11T11:12:59.672Z,40.33
2018-09-11T11:15:28.457Z,40.69
2018-09-11T11:17:57.159Z,40.69
2018-09-11T11:20:25.926Z,40.95
2018-09-11T11:22:54.752Z,40.06
2018-09-11T11:25:23.565Z,39.85
2018-09-11T11:27:52.372Z,40.13
2018-09-11T11:30:21.202Z,38.94
2018-09-11T11:32:49.984Z,38.25
2018-09-11T11:35:18.711Z,38.61
2018-09-11T11:37:47.460Z,38.17
2018-09-11T11:40:16.229Z,38.25
2018-09-11T11:42:45.043Z,37.85
2018-09-11T11:45:14.144Z,37.81
2018-09-11T11:47:43.093Z,37.31
2018-09-11T11:50:11.900Z,34.64
2018-09-11T11:52:40.756Z,33.04
2018-09-11T11:55:09.627Z,32.76
2018-09-11T11:57:38.742Z,31.03
2018-09-11T12:00:07.732Z,30.81
2018-09-11T12:02:36.505Z,29.51
2018-09-11T12:05:05.448Z,29.64
2018-09-11T12:07:34.264Z,29.58
2018-09-11T12:10:03.063Z,31.58
2018-09-11T12:12:31.884Z,31.32
2018-09-11T12:15:00.812Z,31.20
2018-09-11T12:17:29.570Z,31.89
2018-09-11T12:19:58.380Z,32.11
2018-09-11T12:22:27.349Z,32.68
2018-09-11T12:24:56.162Z,32.33
2018-09-11T12:27:25.104Z,32.84
2018-09-11T12:29:54.053Z,33.67
2018-09-11T12:32:22.839Z,33.36
2018-09-11T12:34:51.598Z,34.81
2018-09-11T12:37:20.382Z,34.48
2018-09-11T12:39:49.129Z,34.98
2018-09-11T12:42:17.890Z,34.18
2018-09-11T12:44:46.722Z,32.54
2018-09-11T12:47:15.649Z,32.75
2018-09-11T12:49:44.500Z,31.81
2018-09-11T12:52:13.271Z,31.86
2018-09-11T12:54:42.281Z,31.37
2018-09-11T12:57:11.036Z,31.50
2018-09-11T12:59:39.928Z,31.55
2018-09-11T13:02:08.738Z,32.05
2018-09-11T13:04:37.691Z,32.99
2018-09-11T13:07:06.410Z,32.97
2018-09-11T13:09:35.358Z,33.20
2018-09-11T13:12:04.289Z,32.99
2018-09-11T13:14:33.203Z,32.97
2018-09-11T13:17:02.097Z,33.34
2018-09-11T13:19:30.868Z,33.69
2018-09-11T13:21:59.775Z,33.74
2018-09-11T13:24:28.593Z,33.98
2018-09-11T13:26:57.496Z,32.67
2018-09-11T13:29:26.284Z,32.93
2018-09-11T13:31:55.046Z,33.58
2018-09-11T13:34:23.798Z,33.77
2018-09-11T13:36:52.588Z,33.15
2018-09-11T13:39:21.359Z,32.96
2018-09-11T13:41:50.152Z,34.19
2018-09-11T13:44:18.963Z,33.86
2018-09-11T13:46:47.781Z,34.10
2018-09-11T13:49:16.596Z,33.82
2018-09-11T13:51:45.628Z,33.07
2018-09-11T13:54:14.341Z,32.95
2018-09-11T13:56:43.121Z,32.96
2018-09-11T13:59:11.911Z,33.61
2018-09-11T14:01:40.778Z,33.13
2018-09-11T14:04:09.640Z,33.54
2018-09-11T14:06:38.465Z,33.28
2018-09-11T14:09:10.158Z,32.62
2018-09-11T14:11:38.946Z,32.45
2018-09-11T14:14:07.707Z,32.24
2018-09-11T14:16:36.550Z,31.60
2018-09-11T14:19:05.397Z,32.15
2018-09-11T14:21:40.710Z,31.94
2018-09-11T14:24:09.470Z,31.42
2018-09-11T14:26:38.298Z,32.05
2018-09-11T14:29:07.246Z,32.17
2018-09-11T14:31:36.070Z,34.26
2018-09-11T14:34:04.869Z,34.22
2018-09-11T14:36:33.637Z,36.18
2018-09-11T14:39:02.755Z,37.17
2018-09-11T14:41:31.482Z,37.38
2018-09-11T14:44:00.266Z,36.73
2018-09-11T14:46:29.053Z,36.74
2018-09-11T14:48:57.806Z,36.73
2018-09-11T14:51:26.549Z,37.80
2018-09-11T14:53:55.343Z,37.33
2018-09-11T14:56:24.121Z,37.90
2018-09-11T14:58:52.888Z,38.13
2018-09-11T15:01:21.658Z,38.54
2018-09-11T15:03:50.502Z,39.84
2018-09-11T15:06:19.312Z,40.14
2018-09-11T15:08:48.098Z,39.59
2018-09-11T15:11:16.910Z,39.86
2018-09-11T15:13:45.751Z,41.02
2018-09-11T15:16:14.523Z,40.46
2018-09-11T15:18:43.317Z,41.73
2018-09-11T15:21:12.062Z,41.12
2018-09-11T15:23:40.911Z,41.99
2018-09-11T15:26:09.702Z,41.76
2018-09-11T15:28:38.490Z,41.62
2018-09-11T15:31:07.324Z,41.66
2018-09-11T15:33:36.077Z,41.81
2018-09-11T15:36:04.982Z,42.59
2018-09-11T15:38:33.850Z,42.65
2018-09-11T15:41:02.598Z,42.33
2018-09-11T15:43:31.429Z,41.98
2018-09-11T15:46:00.217Z,42.05
2018-09-11T15:48:29.016Z,42.54
2018-09-11T15:50:57.862Z,42.94
2018-09-11T15:53:26.602Z,42.80
2018-09-11T15:55:55.569Z,42.79
2018-09-11T15:58:24.393Z,43.83
2018-09-11T16:00:53.424Z,43.26
2018-09-11T16:03:22.411Z,44.08
2018-09-11T16:05:51.194Z,43.54
2018-09-11T16:08:20.007Z,43.41
2018-09-11T16:10:48.999Z,43.75
2018-09-11T16:13:17.829Z,43.98
2018-09-11T16:15:46.614Z,45.06
2018-09-11T16:18:15.427Z,44.79
2018-09-11T16:20:44.220Z,44.78
2018-09-11T16:23:13.130Z,45.10
2018-09-11T16:25:41.948Z,45.49
2018-09-11T16:28:10.785Z,45.23
2018-09-11T16:30:39.582Z,46.03
2018-09-11T16:33:08.334Z,45.39
2018-09-11T16:35:37.148Z,45.69
2018-09-11T16:38:06.025Z,46.55
2018-09-11T16:40:34.823Z,46.13
2018-09-11T16:43:03.798Z,47.31
2018-09-11T16:45:32.598Z,46.63
2018-09-11T16:48:01.346Z,47.17
2018-09-11T16:50:30.119Z,47.54
2018-09-11T16:52:58.944Z,46.98
2018-09-11T16:55:27.731Z,47.63
2018-09-11T16:57:56.578Z,47.40
2018-09-11T17:00:25.339Z,47.31
2018-09-11T17:02:54.110Z,47.65
2018-09-11T17:05:22.906Z,48.09
2018-09-11T17:07:51.655Z,47.82
2018-09-11T17:10:20.489Z,47.60
2018-09-11T17:12:49.282Z,47.69
2018-09-11T17:15:18.077Z,48.17
2018-09-11T17:17:46.906Z,48.60
2018-09-11T17:20:15.872Z,47.58
2018-09-11T17:22:44.969Z,47.30
2018-09-11T17:25:13.816Z,47.18
2018-09-11T17:27:42.623Z,48.24
2018-09-11T17:30:11.981Z,47.52
2018-09-11T17:32:40.837Z,47.85
2018-09-11T17:35:09.638Z,47.76
2018-09-11T17:37:38.392Z,46.82
2018-09-11T17:40:07.198Z,47.12
2018-09-11T17:42:36.039Z,47.45
2018-09-11T17:45:05.046Z,48.29
2018-09-11T17:47:33.827Z,48.07
2018-09-11T17:50:02.615Z,48.19
2018-09-11T17:52:31.406Z,48.26
2018-09-11T17:55:00.167Z,47.49
2018-09-11T17:57:29.075Z,46.74
2018-09-11T17:59:57.868Z,47.17
2018-09-11T18:02:26.693Z,47.09
2018-09-11T18:04:55.465Z,46.80
2018-09-11T18:07:24.267Z,46.38
2018-09-11T18:09:53.018Z,46.24
2018-09-11T18:12:21.799Z,46.70
2018-09-11T18:14:50.609Z,46.99
2018-09-11T18:17:19.380Z,47.29
2018-09-11T18:19:48.175Z,47.32
2018-09-11T18:22:16.966Z,47.48
2018-09-11T18:24:45.835Z,47.40
2018-09-11T18:27:14.883Z,47.86
2018-09-11T18:29:43.667Z,46.99
2018-09-11T18:32:12.669Z,47.40
2018-09-11T18:34:41.459Z,47.05
2018-09-11T18:37:10.355Z,46.86
2018-09-11T18:39:39.294Z,47.57
2018-09-11T18:42:08.083Z,47.18
2018-09-11T18:44:36.931Z,47.53
2018-09-11T18:47:06.100Z,46.82
2018-09-11T18:49:34.834Z,47.14
2018-09-11T18:52:03.697Z,47.62
2018-09-11T18:54:32.512Z,47.14
2018-09-11T18:57:01.413Z,47.81
2018-09-11T18:59:30.201Z,48.25
2018-09-11T19:01:59.353Z,47.07
2018-09-11T19:04:28.173Z,47.39
2018-09-11T19:06:56.912Z,47.37
2018-09-11T19:09:25.711Z,47.91
2018-09-11T19:11:54.632Z,48.20
2018-09-11T19:14:23.436Z,47.35
2018-09-11T19:16:52.208Z,48.56
2018-09-11T19:19:21.062Z,47.90
2018-09-11T19:21:49.970Z,47.42
2018-09-11T19:24:18.741Z,47.94
2018-09-11T19:26:47.587Z,47.58
2018-09-11T19:29:16.532Z,47.98
2018-09-11T19:31:45.298Z,47.67
2018-09-11T19:34:14.218Z,48.78
2018-09-11T19:36:43.375Z,48.10
2018-09-11T19:39:12.198Z,48.74
2018-09-11T19:41:40.959Z,49.38
2018-09-11T19:44:09.736Z,48.52
2018-09-11T19:46:38.918Z,49.01
2018-09-11T19:49:07.687Z,49.91
2018-09-11T19:51:36.448Z,49.89
2018-09-11T19:54:05.317Z,50.02
2018-09-11T19:56:34.708Z,50.24
2018-09-11T19:59:03.492Z,50.18
2018-09-11T20:01:32.287Z,50.33
2018-09-11T20:04:01.196Z,50.53
2018-09-11T20:06:30.028Z,50.65
2018-09-11T20:08:58.753Z,50.80
2018-09-11T20:11:27.514Z,50.51
2018-09-11T20:13:56.309Z,51.09
2018-09-11T20:16:25.068Z,51.52
2018-09-11T20:18:53.897Z,51.60
2018-09-11T20:21:22.694Z,51.82
2018-09-11T20:23:51.489Z,51.21
2018-09-11T20:26:20.381Z,52.62
2018-09-11T20:28:49.155Z,51.68
2018-09-11T20:31:18.117Z,51.96
2018-09-11T20:33:47.010Z,52.29
2018-09-11T20:36:16.029Z,52.41
2018-09-11T20:38:44.934Z,52.75
2018-09-11T20:41:13.685Z,52.58
2018-09-11T20:43:42.503Z,53.11
2018-09-11T20:46:11.263Z,52.98
2018-09-11T20:48:39.987Z,51.93
2018-09-11T20:51:08.827Z,52.64
2018-09-11T20:53:37.591Z,52.52
2018-09-11T20:56:06.439Z,52.92
2018-09-11T20:58:35.353Z,52.67
2018-09-11T21:01:04.157Z,53.06
2018-09-11T21:03:32.913Z,52.67
2018-09-11T21:06:01.730Z,52.83
2018-09-11T21:08:30.490Z,52.56
2018-09-11T21:10:59.325Z,52.74
2018-09-11T21:13:28.367Z,52.03
2018-09-11T21:15:57.143Z,52.75
2018-09-11T21:18:25.999Z,52.88
2018-09-11T21:20:54.788Z,53.75
2018-09-11T21:23:23.544Z,53.19
2018-09-11T21:25:52.334Z,53.16
2018-09-11T21:28:21.142Z,53.36
2018-09-11T21:30:50.107Z,53.53
2018-09-11T21:33:18.856Z,54.79
2018-09-11T21:35:47.568Z,54.29
2018-09-11T21:38:16.343Z,54.03
2018-09-11T21:40:45.094Z,54.76
2018-09-11T21:43:13.895Z,54.01
2018-09-11T21:45:42.730Z,54.26
2018-09-11T21:48:11.493Z,53.59
2018-09-11T21:50:40.337Z,54.83
2018-09-11T21:53:09.106Z,54.58
2018-09-11T21:55:37.903Z,55.00
2018-09-11T21:58:06.671Z,55.93
2018-09-11T22:00:38.457Z,54.97
2018-09-11T22:03:07.223Z,54.66
2018-09-11T22:05:36.055Z,53.94
2018-09-11T22:08:04.933Z,53.44
2018-09-11T22:10:33.663Z,53.62
2018-09-11T22:13:02.451Z,54.56
2018-09-11T22:15:31.187Z,53.64
2018-09-11T22:18:00.069Z,54.07
2018-09-11T22:20:28.852Z,54.45
2018-09-11T22:22:57.562Z,54.10
2018-09-11T22:25:26.356Z,54.88
2018-09-11T22:27:55.121Z,54.08
2018-09-11T22:30:23.914Z,54.33
2018-09-11T22:32:52.688Z,54.98
2018-09-11T22:35:21.462Z,54.53
2018-09-11T22:37:50.203Z,55.12
2018-09-11T22:40:19.221Z,55.29
2018-09-11T22:42:47.952Z,55.09
2018-09-11T22:45:16.736Z,55.83
2018-09-11T22:47:45.545Z,55.03
2018-09-11T22:50:14.334Z,55.58
2018-09-11T22:52:43.055Z,56.25
2018-09-11T22:55:11.817Z,56.72
2018-09-11T22:57:40.592Z,55.83
2018-09-11T23:00:09.485Z,57.02
2018-09-11T23:02:38.324Z,57.46
2018-09-11T23:05:07.170Z,57.33
2018-09-11T23:07:35.908Z,58.56
2018-09-11T23:10:04.852Z,58.17
2018-09-11T23:12:33.622Z,57.63
2018-09-11T23:15:02.425Z,58.84
2018-09-11T23:17:31.179Z,58.91
2018-09-11T23:20:00.027Z,59.66
2018-09-11T23:22:28.810Z,59.72
2018-09-11T23:24:57.684Z,60.53
2018-09-11T23:27:26.691Z,60.64
2018-09-11T23:29:55.473Z,60.18
2018-09-11T23:32:24.504Z,60.78
2018-09-11T23:34:53.277Z,61.07
2018-09-11T23:37:22.028Z,61.79
2018-09-11T23:39:50.812Z,61.03
2018-09-11T23:42:19.723Z,61.21
2018-09-11T23:44:48.456Z,61.91
2018-09-11T23:47:17.209Z,61.46
2018-09-11T23:49:45.989Z,62.48
2018-09-11T23:52:14.736Z,62.58
2018-09-11T23:54:43.507Z,63.02
2018-09-11T23:57:12.352Z,62.70
2018-09-11T23:59:41.154Z,61.96
